sensor_id;sensor_type;location;lat;lon;timestamp;P1;durP1;ratioP1;P2;durP2;ratioP2
7432;SDS011;32233;49.500;7.764;2023-09-19T00:02:03;8.03;;;4.20;;
7432;SDS011;32233;49.500;7.764;2023-09-19T00:04:34;8.30;;;4.10;;
7432;SDS011;32233;49.500;7.764;2023-09-19T00:07:01;9.60;;;4.23;;
7432;SDS011;32233;49.500;7.764;2023-09-19T00:09:29;9.77;;;4.93;;
7432;SDS011;32233;49.500;7.764;2023-09-19T00:11:56;6.73;;;4.50;;
7432;SDS011;32233;49.500;7.764;2023-09-19T00:14:24;10.50;;;5.63;;
7432;SDS011;32233;49.500;7.764;2023-09-19T00:16:51;9.03;;;4.87;;
7432;SDS011;32233;49.500;7.764;2023-09-19T00:19:18;10.80;;;5.63;;
7432;SDS011;32233;49.500;7.764;2023-09-19T00:21:44;10.43;;;5.73;;
7432;SDS011;32233;49.500;7.764;2023-09-19T00:24:13;8.33;;;5.03;;
7432;SDS011;32233;49.500;7.764;2023-09-19T00:26:40;11.10;;;6.50;;
7432;SDS011;32233;49.500;7.764;2023-09-19T00:29:06;9.80;;;6.33;;
7432;SDS011;32233;49.500;7.764;2023-09-19T00:31:33;8.10;;;5.80;;
7432;SDS011;32233;49.500;7.764;2023-09-19T00:34:00;9.77;;;7.20;;
7432;SDS011;32233;49.500;7.764;2023-09-19T00:36:33;10.77;;;6.17;;
7432;SDS011;32233;49.500;7.764;2023-09-19T00:39:00;9.90;;;7.00;;
7432;SDS011;32233;49.500;7.764;2023-09-19T00:41:26;8.93;;;7.17;;
7432;SDS011;32233;49.500;7.764;2023-09-19T00:43:56;9.07;;;6.23;;
7432;SDS011;32233;49.500;7.764;2023-09-19T00:46:23;12.20;;;7.30;;
7432;SDS011;32233;49.500;7.764;2023-09-19T00:48:49;13.83;;;7.53;;
7432;SDS011;32233;49.500;7.764;2023-09-19T00:51:16;13.17;;;8.13;;
7432;SDS011;32233;49.500;7.764;2023-09-19T00:53:47;14.47;;;8.00;;
7432;SDS011;32233;49.500;7.764;2023-09-19T00:56:14;11.07;;;8.87;;
7432;SDS011;32233;49.500;7.764;2023-09-19T00:58:46;10.03;;;8.13;;
7432;SDS011;32233;49.500;7.764;2023-09-19T01:01:13;9.20;;;7.33;;
7432;SDS011;32233;49.500;7.764;2023-09-19T01:03:41;11.83;;;7.40;;
7432;SDS011;32233;49.500;7.764;2023-09-19T01:06:08;11.43;;;7.63;;
7432;SDS011;32233;49.500;7.764;2023-09-19T01:08:38;9.80;;;6.43;;
7432;SDS011;32233;49.500;7.764;2023-09-19T01:11:08;7.90;;;7.00;;
7432;SDS011;32233;49.500;7.764;2023-09-19T01:14:15;9.43;;;7.27;;
7432;SDS011;32233;49.500;7.764;2023-09-19T01:31:24;10.50;;;6.67;;
7432;SDS011;32233;49.500;7.764;2023-09-19T01:33:57;8.53;;;5.43;;
7432;SDS011;32233;49.500;7.764;2023-09-19T01:36:27;7.40;;;5.30;;
7432;SDS011;32233;49.500;7.764;2023-09-19T01:38:55;8.80;;;5.30;;
7432;SDS011;32233;49.500;7.764;2023-09-19T01:41:29;6.53;;;4.90;;
7432;SDS011;32233;49.500;7.764;2023-09-19T01:44:05;5.67;;;4.93;;
7432;SDS011;32233;49.500;7.764;2023-09-19T01:46:37;7.17;;;5.13;;
7432;SDS011;32233;49.500;7.764;2023-09-19T01:49:15;9.70;;;4.80;;
7432;SDS011;32233;49.500;7.764;2023-09-19T01:52:09;7.20;;;4.47;;
7432;SDS011;32233;49.500;7.764;2023-09-19T01:54:46;8.47;;;5.50;;
7432;SDS011;32233;49.500;7.764;2023-09-19T01:59:50;10.83;;;5.73;;
7432;SDS011;32233;49.500;7.764;2023-09-19T02:02:22;7.37;;;6.13;;
7432;SDS011;32233;49.500;7.764;2023-09-19T02:04:51;8.93;;;5.90;;
7432;SDS011;32233;49.500;7.764;2023-09-19T02:07:18;9.03;;;6.80;;
7432;SDS011;32233;49.500;7.764;2023-09-19T02:09:45;9.73;;;7.10;;
7432;SDS011;32233;49.500;7.764;2023-09-19T02:12:11;13.60;;;8.40;;
7432;SDS011;32233;49.500;7.764;2023-09-19T02:14:38;9.70;;;7.13;;
7432;SDS011;32233;49.500;7.764;2023-09-19T02:17:04;12.20;;;8.87;;
7432;SDS011;32233;49.500;7.764;2023-09-19T02:19:37;12.63;;;9.70;;
7432;SDS011;32233;49.500;7.764;2023-09-19T02:22:05;11.70;;;8.97;;
7432;SDS011;32233;49.500;7.764;2023-09-19T02:24:34;16.37;;;9.70;;
7432;SDS011;32233;49.500;7.764;2023-09-19T02:27:02;20.57;;;11.97;;
7432;SDS011;32233;49.500;7.764;2023-09-19T02:29:31;14.23;;;10.33;;
7432;SDS011;32233;49.500;7.764;2023-09-19T02:31:58;13.73;;;10.83;;
7432;SDS011;32233;49.500;7.764;2023-09-19T02:34:25;15.90;;;11.77;;
7432;SDS011;32233;49.500;7.764;2023-09-19T02:36:52;15.53;;;10.50;;
7432;SDS011;32233;49.500;7.764;2023-09-19T02:39:22;17.33;;;10.63;;
7432;SDS011;32233;49.500;7.764;2023-09-19T02:41:49;13.03;;;9.43;;
7432;SDS011;32233;49.500;7.764;2023-09-19T02:44:16;14.87;;;9.73;;
7432;SDS011;32233;49.500;7.764;2023-09-19T02:46:43;15.23;;;10.63;;
7432;SDS011;32233;49.500;7.764;2023-09-19T02:49:09;17.57;;;11.27;;
7432;SDS011;32233;49.500;7.764;2023-09-19T02:51:36;16.40;;;11.83;;
7432;SDS011;32233;49.500;7.764;2023-09-19T02:54:03;17.50;;;12.10;;
7432;SDS011;32233;49.500;7.764;2023-09-19T02:56:29;14.37;;;10.70;;
7432;SDS011;32233;49.500;7.764;2023-09-19T02:58:58;16.63;;;10.87;;
7432;SDS011;32233;49.500;7.764;2023-09-19T03:01:26;18.07;;;11.77;;
7432;SDS011;32233;49.500;7.764;2023-09-19T03:03:55;17.90;;;12.10;;
7432;SDS011;32233;49.500;7.764;2023-09-19T03:06:21;18.50;;;12.03;;
7432;SDS011;32233;49.500;7.764;2023-09-19T03:08:50;18.00;;;11.30;;
7432;SDS011;32233;49.500;7.764;2023-09-19T03:11:20;16.93;;;11.93;;
7432;SDS011;32233;49.500;7.764;2023-09-19T03:13:52;20.50;;;12.30;;
7432;SDS011;32233;49.500;7.764;2023-09-19T03:16:20;21.57;;;12.97;;
7432;SDS011;32233;49.500;7.764;2023-09-19T03:18:54;18.50;;;11.67;;
7432;SDS011;32233;49.500;7.764;2023-09-19T03:21:22;15.60;;;11.10;;
7432;SDS011;32233;49.500;7.764;2023-09-19T03:23:49;23.40;;;13.50;;
7432;SDS011;32233;49.500;7.764;2023-09-19T03:26:16;21.17;;;12.87;;
7432;SDS011;32233;49.500;7.764;2023-09-19T03:28:44;20.57;;;12.73;;
7432;SDS011;32233;49.500;7.764;2023-09-19T03:31:12;16.10;;;10.37;;
7432;SDS011;32233;49.500;7.764;2023-09-19T03:33:39;16.97;;;11.00;;
7432;SDS011;32233;49.500;7.764;2023-09-19T03:36:06;18.23;;;11.07;;
7432;SDS011;32233;49.500;7.764;2023-09-19T03:38:33;17.70;;;10.60;;
7432;SDS011;32233;49.500;7.764;2023-09-19T03:41:01;23.17;;;12.37;;
7432;SDS011;32233;49.500;7.764;2023-09-19T03:43:28;17.97;;;11.03;;
7432;SDS011;32233;49.500;7.764;2023-09-19T03:45:55;12.07;;;9.03;;
7432;SDS011;32233;49.500;7.764;2023-09-19T03:48:22;16.13;;;10.70;;
7432;SDS011;32233;49.500;7.764;2023-09-19T03:50:50;19.10;;;10.63;;
7432;SDS011;32233;49.500;7.764;2023-09-19T03:53:18;15.50;;;10.60;;
7432;SDS011;32233;49.500;7.764;2023-09-19T03:55:45;14.10;;;9.97;;
7432;SDS011;32233;49.500;7.764;2023-09-19T03:58:12;14.37;;;9.57;;
7432;SDS011;32233;49.500;7.764;2023-09-19T04:00:39;12.37;;;8.50;;
7432;SDS011;32233;49.500;7.764;2023-09-19T04:03:06;16.07;;;9.33;;
7432;SDS011;32233;49.500;7.764;2023-09-19T04:05:34;12.57;;;8.53;;
7432;SDS011;32233;49.500;7.764;2023-09-19T04:08:00;15.37;;;7.53;;
7432;SDS011;32233;49.500;7.764;2023-09-19T04:10:27;10.00;;;7.63;;
7432;SDS011;32233;49.500;7.764;2023-09-19T04:12:55;12.40;;;7.83;;
7432;SDS011;32233;49.500;7.764;2023-09-19T04:15:22;13.70;;;7.30;;
7432;SDS011;32233;49.500;7.764;2023-09-19T04:17:52;10.73;;;6.37;;
7432;SDS011;32233;49.500;7.764;2023-09-19T04:20:19;10.77;;;5.90;;
7432;SDS011;32233;49.500;7.764;2023-09-19T04:22:46;7.80;;;5.70;;
7432;SDS011;32233;49.500;7.764;2023-09-19T04:25:13;9.43;;;5.67;;
7432;SDS011;32233;49.500;7.764;2023-09-19T04:27:40;13.87;;;5.90;;
7432;SDS011;32233;49.500;7.764;2023-09-19T04:30:10;11.53;;;5.97;;
7432;SDS011;32233;49.500;7.764;2023-09-19T04:32:38;10.80;;;5.67;;
7432;SDS011;32233;49.500;7.764;2023-09-19T04:35:06;12.60;;;6.50;;
7432;SDS011;32233;49.500;7.764;2023-09-19T04:37:36;11.87;;;5.97;;
7432;SDS011;32233;49.500;7.764;2023-09-19T04:40:07;10.47;;;5.20;;
7432;SDS011;32233;49.500;7.764;2023-09-19T04:42:42;8.70;;;5.33;;
7432;SDS011;32233;49.500;7.764;2023-09-19T04:45:09;9.80;;;5.30;;
7432;SDS011;32233;49.500;7.764;2023-09-19T04:47:37;6.90;;;5.50;;
7432;SDS011;32233;49.500;7.764;2023-09-19T04:50:10;11.00;;;6.03;;
7432;SDS011;32233;49.500;7.764;2023-09-19T04:52:41;9.03;;;4.87;;
7432;SDS011;32233;49.500;7.764;2023-09-19T04:55:14;9.87;;;4.50;;
7432;SDS011;32233;49.500;7.764;2023-09-19T04:57:44;11.13;;;4.60;;
7432;SDS011;32233;49.500;7.764;2023-09-19T05:00:15;11.00;;;4.13;;
7432;SDS011;32233;49.500;7.764;2023-09-19T05:02:46;9.93;;;4.40;;
7432;SDS011;32233;49.500;7.764;2023-09-19T05:05:15;8.50;;;4.50;;
7432;SDS011;32233;49.500;7.764;2023-09-19T05:07:43;6.30;;;4.00;;
7432;SDS011;32233;49.500;7.764;2023-09-19T05:10:10;8.60;;;3.50;;
7432;SDS011;32233;49.500;7.764;2023-09-19T05:12:38;7.60;;;4.40;;
7432;SDS011;32233;49.500;7.764;2023-09-19T05:15:05;6.07;;;3.53;;
7432;SDS011;32233;49.500;7.764;2023-09-19T05:17:33;12.43;;;3.50;;
7432;SDS011;32233;49.500;7.764;2023-09-19T05:20:01;6.93;;;4.03;;
7432;SDS011;32233;49.500;7.764;2023-09-19T05:22:41;11.00;;;4.17;;
7432;SDS011;32233;49.500;7.764;2023-09-19T05:25:09;7.33;;;3.27;;
7432;SDS011;32233;49.500;7.764;2023-09-19T05:27:37;9.77;;;3.90;;
7432;SDS011;32233;49.500;7.764;2023-09-19T05:30:03;8.80;;;3.27;;
7432;SDS011;32233;49.500;7.764;2023-09-19T05:32:31;9.07;;;3.90;;
7432;SDS011;32233;49.500;7.764;2023-09-19T05:34:58;11.57;;;3.73;;
7432;SDS011;32233;49.500;7.764;2023-09-19T05:37:24;8.87;;;3.67;;
7432;SDS011;32233;49.500;7.764;2023-09-19T05:39:52;8.47;;;3.37;;
7432;SDS011;32233;49.500;7.764;2023-09-19T05:42:22;8.57;;;3.70;;
7432;SDS011;32233;49.500;7.764;2023-09-19T05:44:49;7.27;;;3.47;;
7432;SDS011;32233;49.500;7.764;2023-09-19T05:47:15;8.27;;;3.83;;
7432;SDS011;32233;49.500;7.764;2023-09-19T05:49:42;7.53;;;4.37;;
7432;SDS011;32233;49.500;7.764;2023-09-19T05:52:08;5.70;;;3.30;;
7432;SDS011;32233;49.500;7.764;2023-09-19T05:54:35;8.60;;;3.40;;
7432;SDS011;32233;49.500;7.764;2023-09-19T05:57:03;5.27;;;3.63;;
7432;SDS011;32233;49.500;7.764;2023-09-19T05:59:30;6.97;;;3.37;;
7432;SDS011;32233;49.500;7.764;2023-09-19T06:01:57;8.53;;;3.13;;
7432;SDS011;32233;49.500;7.764;2023-09-19T06:04:23;8.30;;;3.27;;
7432;SDS011;32233;49.500;7.764;2023-09-19T06:06:50;6.63;;;2.87;;
7432;SDS011;32233;49.500;7.764;2023-09-19T06:09:17;4.30;;;3.23;;
7432;SDS011;32233;49.500;7.764;2023-09-19T06:11:45;9.20;;;3.30;;
7432;SDS011;32233;49.500;7.764;2023-09-19T06:14:11;7.73;;;3.43;;
7432;SDS011;32233;49.500;7.764;2023-09-19T06:16:38;8.03;;;3.03;;
7432;SDS011;32233;49.500;7.764;2023-09-19T06:19:05;6.20;;;2.50;;
7432;SDS011;32233;49.500;7.764;2023-09-19T06:21:35;7.23;;;3.20;;
7432;SDS011;32233;49.500;7.764;2023-09-19T06:24:02;7.80;;;2.73;;
7432;SDS011;32233;49.500;7.764;2023-09-19T06:26:29;7.30;;;2.83;;
7432;SDS011;32233;49.500;7.764;2023-09-19T06:28:57;8.90;;;3.00;;
7432;SDS011;32233;49.500;7.764;2023-09-19T06:31:24;5.67;;;2.67;;
7432;SDS011;32233;49.500;7.764;2023-09-19T06:33:52;6.57;;;2.83;;
7432;SDS011;32233;49.500;7.764;2023-09-19T06:36:19;5.27;;;2.80;;
7432;SDS011;32233;49.500;7.764;2023-09-19T06:38:46;6.80;;;2.70;;
7432;SDS011;32233;49.500;7.764;2023-09-19T06:41:13;5.20;;;2.63;;
7432;SDS011;32233;49.500;7.764;2023-09-19T06:43:41;5.00;;;2.60;;
7432;SDS011;32233;49.500;7.764;2023-09-19T06:46:08;4.70;;;2.70;;
7432;SDS011;32233;49.500;7.764;2023-09-19T06:48:34;6.13;;;2.47;;
7432;SDS011;32233;49.500;7.764;2023-09-19T06:51:02;11.13;;;2.80;;
7432;SDS011;32233;49.500;7.764;2023-09-19T06:53:32;6.23;;;2.43;;
7432;SDS011;32233;49.500;7.764;2023-09-19T06:56:01;4.67;;;2.50;;
7432;SDS011;32233;49.500;7.764;2023-09-19T06:58:28;5.63;;;2.47;;
7432;SDS011;32233;49.500;7.764;2023-09-19T07:00:55;4.63;;;2.20;;
7432;SDS011;32233;49.500;7.764;2023-09-19T07:03:23;7.53;;;2.20;;
7432;SDS011;32233;49.500;7.764;2023-09-19T07:05:52;8.47;;;2.30;;
7432;SDS011;32233;49.500;7.764;2023-09-19T07:08:19;5.73;;;1.70;;
7432;SDS011;32233;49.500;7.764;2023-09-19T07:10:46;5.43;;;1.93;;
7432;SDS011;32233;49.500;7.764;2023-09-19T07:13:16;6.17;;;1.77;;
7432;SDS011;32233;49.500;7.764;2023-09-19T07:15:43;5.70;;;1.87;;
7432;SDS011;32233;49.500;7.764;2023-09-19T07:18:14;4.73;;;1.83;;
7432;SDS011;32233;49.500;7.764;2023-09-19T07:20:44;5.07;;;1.80;;
7432;SDS011;32233;49.500;7.764;2023-09-19T07:23:21;9.83;;;2.10;;
7432;SDS011;32233;49.500;7.764;2023-09-19T07:25:52;5.47;;;2.07;;
7432;SDS011;32233;49.500;7.764;2023-09-19T07:28:23;5.60;;;1.80;;
7432;SDS011;32233;49.500;7.764;2023-09-19T07:30:50;4.50;;;1.80;;
7432;SDS011;32233;49.500;7.764;2023-09-19T07:33:16;3.60;;;1.57;;
7432;SDS011;32233;49.500;7.764;2023-09-19T07:35:45;5.53;;;1.50;;
7432;SDS011;32233;49.500;7.764;2023-09-19T07:38:14;4.23;;;2.00;;
7432;SDS011;32233;49.500;7.764;2023-09-19T07:40:41;8.20;;;1.93;;
7432;SDS011;32233;49.500;7.764;2023-09-19T07:43:07;6.67;;;1.97;;
7432;SDS011;32233;49.500;7.764;2023-09-19T07:45:34;5.17;;;1.73;;
7432;SDS011;32233;49.500;7.764;2023-09-19T07:48:02;7.90;;;2.00;;
7432;SDS011;32233;49.500;7.764;2023-09-19T07:50:31;7.27;;;1.90;;
7432;SDS011;32233;49.500;7.764;2023-09-19T07:53:00;8.83;;;2.47;;
7432;SDS011;32233;49.500;7.764;2023-09-19T07:55:27;7.43;;;1.90;;
7432;SDS011;32233;49.500;7.764;2023-09-19T07:57:55;5.37;;;1.57;;
7432;SDS011;32233;49.500;7.764;2023-09-19T08:00:22;10.03;;;1.80;;
7432;SDS011;32233;49.500;7.764;2023-09-19T08:02:48;6.77;;;2.00;;
7432;SDS011;32233;49.500;7.764;2023-09-19T08:05:23;8.60;;;1.80;;
7432;SDS011;32233;49.500;7.764;2023-09-19T08:07:51;8.97;;;2.13;;
7432;SDS011;32233;49.500;7.764;2023-09-19T08:10:19;7.13;;;2.13;;
7432;SDS011;32233;49.500;7.764;2023-09-19T08:12:47;6.77;;;1.97;;
7432;SDS011;32233;49.500;7.764;2023-09-19T08:15:15;4.93;;;1.67;;
7432;SDS011;32233;49.500;7.764;2023-09-19T08:17:43;7.77;;;2.03;;
7432;SDS011;32233;49.500;7.764;2023-09-19T08:20:10;7.17;;;2.00;;
7432;SDS011;32233;49.500;7.764;2023-09-19T08:25:16;4.70;;;1.80;;
7432;SDS011;32233;49.500;7.764;2023-09-19T08:27:44;8.43;;;1.73;;
7432;SDS011;32233;49.500;7.764;2023-09-19T08:30:16;9.90;;;2.13;;
7432;SDS011;32233;49.500;7.764;2023-09-19T08:32:44;8.10;;;2.30;;
7432;SDS011;32233;49.500;7.764;2023-09-19T08:35:12;8.80;;;2.57;;
7432;SDS011;32233;49.500;7.764;2023-09-19T08:37:39;9.23;;;1.93;;
7432;SDS011;32233;49.500;7.764;2023-09-19T08:40:06;8.33;;;1.80;;
7432;SDS011;32233;49.500;7.764;2023-09-19T08:42:51;8.10;;;2.13;;
7432;SDS011;32233;49.500;7.764;2023-09-19T08:45:20;8.97;;;2.07;;
7432;SDS011;32233;49.500;7.764;2023-09-19T08:50:47;4.40;;;1.70;;
7432;SDS011;32233;49.500;7.764;2023-09-19T08:53:26;6.63;;;1.60;;
7432;SDS011;32233;49.500;7.764;2023-09-19T08:56:17;6.63;;;1.60;;
7432;SDS011;32233;49.500;7.764;2023-09-19T08:58:46;6.40;;;1.63;;
7432;SDS011;32233;49.500;7.764;2023-09-19T09:01:17;7.90;;;1.50;;
7432;SDS011;32233;49.500;7.764;2023-09-19T09:03:52;6.53;;;1.50;;
7432;SDS011;32233;49.500;7.764;2023-09-19T09:06:23;8.97;;;1.63;;
7432;SDS011;32233;49.500;7.764;2023-09-19T09:08:53;8.07;;;1.40;;
7432;SDS011;32233;49.500;7.764;2023-09-19T09:11:20;4.93;;;1.53;;
7432;SDS011;32233;49.500;7.764;2023-09-19T09:13:49;5.00;;;1.30;;
7432;SDS011;32233;49.500;7.764;2023-09-19T09:16:16;5.10;;;1.30;;
7432;SDS011;32233;49.500;7.764;2023-09-19T09:18:46;7.43;;;1.40;;
7432;SDS011;32233;49.500;7.764;2023-09-19T09:21:19;7.80;;;1.50;;
7432;SDS011;32233;49.500;7.764;2023-09-19T09:23:48;3.50;;;1.33;;
7432;SDS011;32233;49.500;7.764;2023-09-19T09:26:16;5.83;;;1.83;;
7432;SDS011;32233;49.500;7.764;2023-09-19T09:28:46;4.13;;;1.60;;
7432;SDS011;32233;49.500;7.764;2023-09-19T09:31:22;7.00;;;1.50;;
7432;SDS011;32233;49.500;7.764;2023-09-19T09:33:53;7.53;;;1.33;;
7432;SDS011;32233;49.500;7.764;2023-09-19T09:36:39;5.63;;;1.30;;
7432;SDS011;32233;49.500;7.764;2023-09-19T09:39:08;4.87;;;1.63;;
7432;SDS011;32233;49.500;7.764;2023-09-19T09:41:51;7.47;;;1.30;;
7432;SDS011;32233;49.500;7.764;2023-09-19T09:44:18;7.67;;;1.50;;
7432;SDS011;32233;49.500;7.764;2023-09-19T09:46:46;5.80;;;1.33;;
7432;SDS011;32233;49.500;7.764;2023-09-19T09:49:24;5.83;;;1.50;;
7432;SDS011;32233;49.500;7.764;2023-09-19T09:52:14;4.40;;;1.47;;
7432;SDS011;32233;49.500;7.764;2023-09-19T09:54:59;3.00;;;1.20;;
7432;SDS011;32233;49.500;7.764;2023-09-19T09:57:32;6.90;;;1.60;;
7432;SDS011;32233;49.500;7.764;2023-09-19T10:00:00;5.67;;;1.30;;
7432;SDS011;32233;49.500;7.764;2023-09-19T10:02:39;4.70;;;1.10;;
7432;SDS011;32233;49.500;7.764;2023-09-19T10:05:12;3.70;;;1.30;;
7432;SDS011;32233;49.500;7.764;2023-09-19T10:08:10;5.73;;;1.53;;
7432;SDS011;32233;49.500;7.764;2023-09-19T10:10:39;4.87;;;1.30;;
7432;SDS011;32233;49.500;7.764;2023-09-19T10:13:10;3.30;;;1.10;;
7432;SDS011;32233;49.500;7.764;2023-09-19T10:15:40;4.77;;;1.00;;
7432;SDS011;32233;49.500;7.764;2023-09-19T10:18:12;5.07;;;1.33;;
7432;SDS011;32233;49.500;7.764;2023-09-19T10:20:44;4.90;;;1.17;;
7432;SDS011;32233;49.500;7.764;2023-09-19T10:23:12;5.23;;;1.50;;
7432;SDS011;32233;49.500;7.764;2023-09-19T10:25:40;3.00;;;1.10;;
7432;SDS011;32233;49.500;7.764;2023-09-19T10:28:14;4.27;;;1.10;;
7432;SDS011;32233;49.500;7.764;2023-09-19T10:30:42;3.57;;;1.10;;
7432;SDS011;32233;49.500;7.764;2023-09-19T10:33:12;4.37;;;1.20;;
7432;SDS011;32233;49.500;7.764;2023-09-19T10:35:45;2.90;;;1.00;;
7432;SDS011;32233;49.500;7.764;2023-09-19T10:38:13;3.40;;;1.13;;
7432;SDS011;32233;49.500;7.764;2023-09-19T10:40:45;3.67;;;1.10;;
7432;SDS011;32233;49.500;7.764;2023-09-19T10:43:17;2.90;;;1.10;;
7432;SDS011;32233;49.500;7.764;2023-09-19T10:45:45;3.67;;;1.10;;
7432;SDS011;32233;49.500;7.764;2023-09-19T10:48:16;5.30;;;1.47;;
7432;SDS011;32233;49.500;7.764;2023-09-19T10:51:21;4.40;;;1.50;;
7432;SDS011;32233;49.500;7.764;2023-09-19T10:53:56;2.20;;;1.00;;
7432;SDS011;32233;49.500;7.764;2023-09-19T10:56:32;4.13;;;1.00;;
7432;SDS011;32233;49.500;7.764;2023-09-19T10:59:12;4.37;;;1.10;;
7432;SDS011;32233;49.500;7.764;2023-09-19T11:01:48;5.40;;;1.17;;
7432;SDS011;32233;49.500;7.764;2023-09-19T11:04:21;5.23;;;1.00;;
7432;SDS011;32233;49.500;7.764;2023-09-19T11:09:55;4.13;;;1.20;;
7432;SDS011;32233;49.500;7.764;2023-09-19T11:14:55;13.27;;;6.00;;
7432;SDS011;32233;49.500;7.764;2023-09-19T11:17:37;36.83;;;19.73;;
7432;SDS011;32233;49.500;7.764;2023-09-19T11:30:39;27.50;;;16.43;;
7432;SDS011;32233;49.500;7.764;2023-09-19T11:33:19;15.93;;;9.17;;
7432;SDS011;32233;49.500;7.764;2023-09-19T11:36:05;35.53;;;19.37;;
7432;SDS011;32233;49.500;7.764;2023-09-19T11:46:30;16.33;;;7.20;;
7432;SDS011;32233;49.500;7.764;2023-09-19T11:49:07;18.40;;;8.77;;
7432;SDS011;32233;49.500;7.764;2023-09-19T11:51:42;42.67;;;23.60;;
7432;SDS011;32233;49.500;7.764;2023-09-19T11:54:11;16.23;;;9.00;;
7432;SDS011;32233;49.500;7.764;2023-09-19T11:56:45;3.57;;;1.93;;
7432;SDS011;32233;49.500;7.764;2023-09-19T11:59:22;5.37;;;1.50;;
7432;SDS011;32233;49.500;7.764;2023-09-19T12:01:57;9.87;;;4.43;;
7432;SDS011;32233;49.500;7.764;2023-09-19T12:04:39;2.47;;;1.23;;
7432;SDS011;32233;49.500;7.764;2023-09-19T12:07:16;4.47;;;1.63;;
7432;SDS011;32233;49.500;7.764;2023-09-19T12:10:02;3.77;;;1.97;;
7432;SDS011;32233;49.500;7.764;2023-09-19T12:12:30;4.43;;;1.97;;
7432;SDS011;32233;49.500;7.764;2023-09-19T12:14:59;4.30;;;1.30;;
7432;SDS011;32233;49.500;7.764;2023-09-19T12:17:39;3.90;;;2.17;;
7432;SDS011;32233;49.500;7.764;2023-09-19T12:20:10;5.00;;;2.40;;
7432;SDS011;32233;49.500;7.764;2023-09-19T12:22:41;4.97;;;2.30;;
7432;SDS011;32233;49.500;7.764;2023-09-19T12:25:12;3.60;;;1.20;;
7432;SDS011;32233;49.500;7.764;2023-09-19T12:27:45;2.77;;;1.63;;
7432;SDS011;32233;49.500;7.764;2023-09-19T12:30:19;2.63;;;1.40;;
7432;SDS011;32233;49.500;7.764;2023-09-19T12:32:53;1.97;;;1.20;;
7432;SDS011;32233;49.500;7.764;2023-09-19T12:35:28;2.53;;;1.07;;
7432;SDS011;32233;49.500;7.764;2023-09-19T12:38:02;2.40;;;1.10;;
7432;SDS011;32233;49.500;7.764;2023-09-19T12:40:30;3.80;;;0.90;;
7432;SDS011;32233;49.500;7.764;2023-09-19T12:43:00;3.00;;;0.70;;
7432;SDS011;32233;49.500;7.764;2023-09-19T12:45:32;3.17;;;1.20;;
7432;SDS011;32233;49.500;7.764;2023-09-19T12:48:17;3.17;;;0.97;;
7432;SDS011;32233;49.500;7.764;2023-09-19T12:50:59;2.70;;;0.90;;
7432;SDS011;32233;49.500;7.764;2023-09-19T12:56:11;1.37;;;0.80;;
7432;SDS011;32233;49.500;7.764;2023-09-19T12:58:53;4.70;;;1.10;;
7432;SDS011;32233;49.500;7.764;2023-09-19T13:01:21;2.07;;;0.73;;
7432;SDS011;32233;49.500;7.764;2023-09-19T13:04:13;1.77;;;0.90;;
7432;SDS011;32233;49.500;7.764;2023-09-19T13:06:48;2.20;;;1.03;;
7432;SDS011;32233;49.500;7.764;2023-09-19T13:09:19;1.43;;;0.80;;
7432;SDS011;32233;49.500;7.764;2023-09-19T13:11:47;2.20;;;1.00;;
7432;SDS011;32233;49.500;7.764;2023-09-19T13:16:54;2.10;;;0.70;;
7432;SDS011;32233;49.500;7.764;2023-09-19T13:19:38;3.13;;;0.80;;
7432;SDS011;32233;49.500;7.764;2023-09-19T13:25:09;2.43;;;0.80;;
7432;SDS011;32233;49.500;7.764;2023-09-19T13:27:50;2.37;;;0.70;;
7432;SDS011;32233;49.500;7.764;2023-09-19T13:30:18;1.27;;;0.83;;
7432;SDS011;32233;49.500;7.764;2023-09-19T13:32:46;2.63;;;0.80;;
7432;SDS011;32233;49.500;7.764;2023-09-19T13:35:14;0.97;;;0.80;;
7432;SDS011;32233;49.500;7.764;2023-09-19T13:37:42;2.13;;;0.80;;
7432;SDS011;32233;49.500;7.764;2023-09-19T13:40:10;1.70;;;0.83;;
7432;SDS011;32233;49.500;7.764;2023-09-19T13:42:38;2.50;;;0.70;;
7432;SDS011;32233;49.500;7.764;2023-09-19T13:45:06;2.03;;;0.80;;
7432;SDS011;32233;49.500;7.764;2023-09-19T13:47:33;2.83;;;0.70;;
7432;SDS011;32233;49.500;7.764;2023-09-19T13:50:01;4.13;;;1.53;;
7432;SDS011;32233;49.500;7.764;2023-09-19T13:52:30;3.27;;;0.90;;
7432;SDS011;32233;49.500;7.764;2023-09-19T13:54:58;1.93;;;0.80;;
7432;SDS011;32233;49.500;7.764;2023-09-19T13:57:25;3.03;;;0.87;;
7432;SDS011;32233;49.500;7.764;2023-09-19T13:59:52;1.67;;;1.10;;
7432;SDS011;32233;49.500;7.764;2023-09-19T14:02:21;1.53;;;0.80;;
7432;SDS011;32233;49.500;7.764;2023-09-19T14:04:51;2.67;;;0.90;;
7432;SDS011;32233;49.500;7.764;2023-09-19T14:07:18;1.83;;;0.80;;
7432;SDS011;32233;49.500;7.764;2023-09-19T14:09:46;2.10;;;0.73;;
7432;SDS011;32233;49.500;7.764;2023-09-19T14:12:13;3.67;;;1.37;;
7432;SDS011;32233;49.500;7.764;2023-09-19T14:14:41;2.23;;;0.70;;
7432;SDS011;32233;49.500;7.764;2023-09-19T14:17:09;1.87;;;0.80;;
7432;SDS011;32233;49.500;7.764;2023-09-19T14:19:36;1.63;;;0.80;;
7432;SDS011;32233;49.500;7.764;2023-09-19T14:22:03;2.30;;;0.60;;
7432;SDS011;32233;49.500;7.764;2023-09-19T14:24:34;2.60;;;0.70;;
7432;SDS011;32233;49.500;7.764;2023-09-19T14:27:01;1.33;;;0.60;;
7432;SDS011;32233;49.500;7.764;2023-09-19T14:29:30;2.57;;;0.83;;
7432;SDS011;32233;49.500;7.764;2023-09-19T14:31:58;2.70;;;0.70;;
7432;SDS011;32233;49.500;7.764;2023-09-19T14:34:25;1.97;;;0.70;;
7432;SDS011;32233;49.500;7.764;2023-09-19T14:36:52;2.17;;;0.70;;
7432;SDS011;32233;49.500;7.764;2023-09-19T14:39:20;3.23;;;0.80;;
7432;SDS011;32233;49.500;7.764;2023-09-19T14:41:47;3.30;;;0.77;;
7432;SDS011;32233;49.500;7.764;2023-09-19T14:44:14;3.07;;;0.70;;
7432;SDS011;32233;49.500;7.764;2023-09-19T14:46:42;4.53;;;0.87;;
7432;SDS011;32233;49.500;7.764;2023-09-19T14:49:12;2.87;;;0.70;;
7432;SDS011;32233;49.500;7.764;2023-09-19T14:51:38;2.57;;;0.80;;
7432;SDS011;32233;49.500;7.764;2023-09-19T14:54:10;2.80;;;0.90;;
7432;SDS011;32233;49.500;7.764;2023-09-19T14:56:36;3.90;;;0.90;;
7432;SDS011;32233;49.500;7.764;2023-09-19T14:59:03;1.07;;;0.73;;
7432;SDS011;32233;49.500;7.764;2023-09-19T15:01:30;0.97;;;0.70;;
7432;SDS011;32233;49.500;7.764;2023-09-19T15:03:58;1.47;;;0.70;;
7432;SDS011;32233;49.500;7.764;2023-09-19T15:06:27;1.33;;;0.80;;
7432;SDS011;32233;49.500;7.764;2023-09-19T15:08:54;1.37;;;0.70;;
7432;SDS011;32233;49.500;7.764;2023-09-19T15:11:21;1.23;;;0.70;;
7432;SDS011;32233;49.500;7.764;2023-09-19T15:13:51;2.17;;;0.53;;
7432;SDS011;32233;49.500;7.764;2023-09-19T15:16:19;1.90;;;0.70;;
7432;SDS011;32233;49.500;7.764;2023-09-19T15:18:46;3.53;;;0.63;;
7432;SDS011;32233;49.500;7.764;2023-09-19T15:21:18;2.40;;;0.70;;
7432;SDS011;32233;49.500;7.764;2023-09-19T15:23:45;1.60;;;0.70;;
7432;SDS011;32233;49.500;7.764;2023-09-19T15:26:13;2.10;;;0.80;;
7432;SDS011;32233;49.500;7.764;2023-09-19T15:28:43;0.90;;;0.70;;
7432;SDS011;32233;49.500;7.764;2023-09-19T15:31:11;1.90;;;0.70;;
7432;SDS011;32233;49.500;7.764;2023-09-19T15:33:39;1.90;;;0.70;;
7432;SDS011;32233;49.500;7.764;2023-09-19T15:36:10;1.07;;;0.53;;
7432;SDS011;32233;49.500;7.764;2023-09-19T15:41:17;1.53;;;0.70;;
7432;SDS011;32233;49.500;7.764;2023-09-19T15:43:43;2.00;;;0.60;;
7432;SDS011;32233;49.500;7.764;2023-09-19T15:46:10;1.30;;;0.60;;
7432;SDS011;32233;49.500;7.764;2023-09-19T15:48:36;1.13;;;0.67;;
7432;SDS011;32233;49.500;7.764;2023-09-19T15:51:03;1.23;;;0.63;;
7432;SDS011;32233;49.500;7.764;2023-09-19T15:53:49;0.97;;;0.60;;
7432;SDS011;32233;49.500;7.764;2023-09-19T15:56:17;2.67;;;0.80;;
7432;SDS011;32233;49.500;7.764;2023-09-19T15:58:44;2.90;;;0.70;;
7432;SDS011;32233;49.500;7.764;2023-09-19T16:01:12;1.70;;;0.90;;
7432;SDS011;32233;49.500;7.764;2023-09-19T16:03:43;2.57;;;0.70;;
7432;SDS011;32233;49.500;7.764;2023-09-19T16:06:12;0.90;;;0.80;;
7432;SDS011;32233;49.500;7.764;2023-09-19T16:08:40;0.50;;;0.50;;
7432;SDS011;32233;49.500;7.764;2023-09-19T16:11:07;2.27;;;0.70;;
7432;SDS011;32233;49.500;7.764;2023-09-19T16:13:38;1.57;;;0.70;;